Terminal Aerodrome Forecast
Issued by NWS

Home | Current Version | Previous Version | Text Only | Print | Product List | Glossary On
Versions: 1 2 3 4 5 6 7 8 9 10 11 12 13 14 15 16 17 18 19 20 21 22
246
FTUS43 KDLH 211613 AAB
TAFBRD
TAF AMD
KBRD 211613Z 2116/2212 31018G28KT P6SM BKN035
      TEMPO 2116/2117 6SM -SN BKN025
     FM212200 31015G23KT P6SM FEW035
     FM220100 30009KT P6SM SCT030=

USA.gov is the U.S. government's official web portal to all federal, state and local government web resources and services.